Owego, New York
Current Conditions -  °F | °C
As of 6:53 AM on Thursday 23 Oct 2014 (Local Time) from KBGM Reporting Station
Overcast Overcast  
Wind Chill: 35°   Ceiling: 1400
Heat Index: 42°   Visibility: 10mi
Dew Point: 38°   Wind: 15mph
Humidity: 85%   Direction: 340°NNW
Pressure: 29.91"   Gusts: 23mph
Location:  42.1°N, 76.26°W
Report Text: KBGM 231053Z 34013G20KT 10SM OVC014 06/03 A2991 RMK AO2 SLP135 T00560033
Loading
Personal Weather Stations






























Interactive Weather Map
Tropical Storm Tracking
New forecast layout! Learn more

10-Day Weather Forecast

Advertisements
Track Severe Weather on mobile